sensor_id;sensor_type;location;lat;lon;timestamp;P1;durP1;ratioP1;P2;durP2;ratioP2
37097;SDS011;63608;49.572;12.348;2023-06-05T00:01:30;10.00;;;2.93;;
37097;SDS011;63608;49.572;12.348;2023-06-05T00:03:36;2.37;;;2.07;;
37097;SDS011;63608;49.572;12.348;2023-06-05T00:05:39;2.70;;;2.50;;
37097;SDS011;63608;49.572;12.348;2023-06-05T00:07:42;2.77;;;2.57;;
37097;SDS011;63608;49.572;12.348;2023-06-05T00:09:50;4.87;;;4.03;;
37097;SDS011;63608;49.572;12.348;2023-06-05T00:11:53;5.07;;;2.50;;
37097;SDS011;63608;49.572;12.348;2023-06-05T00:13:56;4.17;;;2.20;;
37097;SDS011;63608;49.572;12.348;2023-06-05T00:15:59;3.77;;;2.60;;
37097;SDS011;63608;49.572;12.348;2023-06-05T00:18:03;2.53;;;2.40;;
37097;SDS011;63608;49.572;12.348;2023-06-05T00:20:08;2.30;;;2.20;;
37097;SDS011;63608;49.572;12.348;2023-06-05T00:22:12;2.30;;;2.20;;
37097;SDS011;63608;49.572;12.348;2023-06-05T00:24:14;3.77;;;2.50;;
37097;SDS011;63608;49.572;12.348;2023-06-05T00:26:17;5.03;;;2.50;;
37097;SDS011;63608;49.572;12.348;2023-06-05T00:28:22;2.40;;;2.27;;
37097;SDS011;63608;49.572;12.348;2023-06-05T00:30:26;2.20;;;2.00;;
37097;SDS011;63608;49.572;12.348;2023-06-05T00:32:37;7.27;;;2.50;;
37097;SDS011;63608;49.572;12.348;2023-06-05T00:34:43;3.73;;;2.20;;
37097;SDS011;63608;49.572;12.348;2023-06-05T00:36:47;2.00;;;1.90;;
37097;SDS011;63608;49.572;12.348;2023-06-05T00:38:50;3.00;;;2.53;;
37097;SDS011;63608;49.572;12.348;2023-06-05T00:40:54;2.80;;;2.57;;
37097;SDS011;63608;49.572;12.348;2023-06-05T00:42:58;2.27;;;2.17;;
37097;SDS011;63608;49.572;12.348;2023-06-05T00:45:06;2.50;;;2.30;;
37097;SDS011;63608;49.572;12.348;2023-06-05T00:47:09;4.53;;;2.30;;
37097;SDS011;63608;49.572;12.348;2023-06-05T00:49:12;2.90;;;2.50;;
37097;SDS011;63608;49.572;12.348;2023-06-05T00:51:15;2.20;;;2.10;;
37097;SDS011;63608;49.572;12.348;2023-06-05T00:53:23;2.60;;;2.30;;
37097;SDS011;63608;49.572;12.348;2023-06-05T00:55:27;2.53;;;2.33;;
37097;SDS011;63608;49.572;12.348;2023-06-05T00:57:30;3.20;;;2.30;;
37097;SDS011;63608;49.572;12.348;2023-06-05T00:59:35;2.30;;;2.20;;
37097;SDS011;63608;49.572;12.348;2023-06-05T01:01:40;6.13;;;2.37;;
37097;SDS011;63608;49.572;12.348;2023-06-05T01:03:43;5.23;;;2.40;;
37097;SDS011;63608;49.572;12.348;2023-06-05T01:05:47;2.30;;;2.10;;
37097;SDS011;63608;49.572;12.348;2023-06-05T01:07:50;2.60;;;2.40;;
37097;SDS011;63608;49.572;12.348;2023-06-05T01:09:56;2.20;;;2.10;;
37097;SDS011;63608;49.572;12.348;2023-06-05T01:12:00;2.27;;;2.17;;
37097;SDS011;63608;49.572;12.348;2023-06-05T01:14:08;2.40;;;2.30;;
37097;SDS011;63608;49.572;12.348;2023-06-05T01:16:16;2.37;;;2.27;;
37097;SDS011;63608;49.572;12.348;2023-06-05T01:18:20;3.43;;;2.60;;
37097;SDS011;63608;49.572;12.348;2023-06-05T01:20:23;2.47;;;2.37;;
37097;SDS011;63608;49.572;12.348;2023-06-05T01:22:35;3.87;;;2.30;;
37097;SDS011;63608;49.572;12.348;2023-06-05T01:24:41;3.83;;;2.40;;
37097;SDS011;63608;49.572;12.348;2023-06-05T01:26:48;2.70;;;2.50;;
37097;SDS011;63608;49.572;12.348;2023-06-05T01:29:01;2.70;;;2.30;;
37097;SDS011;63608;49.572;12.348;2023-06-05T01:31:05;2.50;;;2.30;;
37097;SDS011;63608;49.572;12.348;2023-06-05T01:33:17;2.70;;;2.50;;
37097;SDS011;63608;49.572;12.348;2023-06-05T01:35:25;2.73;;;2.53;;
37097;SDS011;63608;49.572;12.348;2023-06-05T01:37:30;2.60;;;2.33;;
37097;SDS011;63608;49.572;12.348;2023-06-05T01:39:36;2.40;;;2.30;;
37097;SDS011;63608;49.572;12.348;2023-06-05T01:41:43;4.73;;;2.60;;
37097;SDS011;63608;49.572;12.348;2023-06-05T01:43:47;2.60;;;2.40;;
37097;SDS011;63608;49.572;12.348;2023-06-05T01:45:54;4.43;;;2.20;;
37097;SDS011;63608;49.572;12.348;2023-06-05T01:48:14;5.03;;;2.27;;
37097;SDS011;63608;49.572;12.348;2023-06-05T01:50:20;2.30;;;2.13;;
37097;SDS011;63608;49.572;12.348;2023-06-05T01:52:29;4.00;;;2.50;;
37097;SDS011;63608;49.572;12.348;2023-06-05T01:54:39;2.37;;;2.27;;
37097;SDS011;63608;49.572;12.348;2023-06-05T01:56:45;2.40;;;2.30;;
37097;SDS011;63608;49.572;12.348;2023-06-05T01:58:48;2.53;;;2.20;;
37097;SDS011;63608;49.572;12.348;2023-06-05T02:00:53;2.90;;;2.40;;
37097;SDS011;63608;49.572;12.348;2023-06-05T02:02:57;2.60;;;2.50;;
37097;SDS011;63608;49.572;12.348;2023-06-05T02:05:00;2.93;;;2.60;;
37097;SDS011;63608;49.572;12.348;2023-06-05T02:07:05;2.50;;;2.30;;
37097;SDS011;63608;49.572;12.348;2023-06-05T02:09:11;2.40;;;2.20;;
37097;SDS011;63608;49.572;12.348;2023-06-05T02:11:14;2.40;;;2.20;;
37097;SDS011;63608;49.572;12.348;2023-06-05T02:13:19;4.00;;;2.37;;
37097;SDS011;63608;49.572;12.348;2023-06-05T02:15:28;2.60;;;2.40;;
37097;SDS011;63608;49.572;12.348;2023-06-05T02:17:32;2.90;;;2.40;;
37097;SDS011;63608;49.572;12.348;2023-06-05T02:19:36;2.70;;;2.30;;
37097;SDS011;63608;49.572;12.348;2023-06-05T02:21:39;2.93;;;2.40;;
37097;SDS011;63608;49.572;12.348;2023-06-05T02:23:48;2.47;;;2.30;;
37097;SDS011;63608;49.572;12.348;2023-06-05T02:25:54;2.63;;;2.43;;
37097;SDS011;63608;49.572;12.348;2023-06-05T02:27:57;2.70;;;2.50;;
37097;SDS011;63608;49.572;12.348;2023-06-05T02:30:06;4.23;;;2.60;;
37097;SDS011;63608;49.572;12.348;2023-06-05T02:32:12;5.53;;;2.60;;
37097;SDS011;63608;49.572;12.348;2023-06-05T02:34:14;2.80;;;2.30;;
37097;SDS011;63608;49.572;12.348;2023-06-05T02:36:19;2.50;;;2.40;;
37097;SDS011;63608;49.572;12.348;2023-06-05T02:38:24;2.80;;;2.50;;
37097;SDS011;63608;49.572;12.348;2023-06-05T02:40:28;2.70;;;2.50;;
37097;SDS011;63608;49.572;12.348;2023-06-05T02:42:31;2.53;;;2.37;;
37097;SDS011;63608;49.572;12.348;2023-06-05T02:44:34;3.47;;;2.70;;
37097;SDS011;63608;49.572;12.348;2023-06-05T02:46:38;2.50;;;2.40;;
37097;SDS011;63608;49.572;12.348;2023-06-05T02:48:43;7.10;;;2.70;;
37097;SDS011;63608;49.572;12.348;2023-06-05T02:50:46;3.00;;;2.53;;
37097;SDS011;63608;49.572;12.348;2023-06-05T02:52:49;2.47;;;2.37;;
37097;SDS011;63608;49.572;12.348;2023-06-05T02:54:53;4.87;;;2.43;;
37097;SDS011;63608;49.572;12.348;2023-06-05T02:56:55;4.07;;;2.80;;
37097;SDS011;63608;49.572;12.348;2023-06-05T02:59:00;4.80;;;2.60;;
37097;SDS011;63608;49.572;12.348;2023-06-05T03:01:04;2.87;;;2.67;;
37097;SDS011;63608;49.572;12.348;2023-06-05T03:03:17;2.40;;;2.30;;
37097;SDS011;63608;49.572;12.348;2023-06-05T03:05:21;2.70;;;2.50;;
37097;SDS011;63608;49.572;12.348;2023-06-05T03:07:25;3.50;;;2.40;;
37097;SDS011;63608;49.572;12.348;2023-06-05T03:09:27;3.90;;;2.53;;
37097;SDS011;63608;49.572;12.348;2023-06-05T03:11:30;2.73;;;2.57;;
37097;SDS011;63608;49.572;12.348;2023-06-05T03:13:37;2.30;;;2.20;;
37097;SDS011;63608;49.572;12.348;2023-06-05T03:15:45;2.23;;;2.10;;
37097;SDS011;63608;49.572;12.348;2023-06-05T03:17:48;2.40;;;2.30;;
37097;SDS011;63608;49.572;12.348;2023-06-05T03:19:54;2.60;;;2.50;;
37097;SDS011;63608;49.572;12.348;2023-06-05T03:21:58;2.47;;;2.37;;
37097;SDS011;63608;49.572;12.348;2023-06-05T03:24:01;2.90;;;2.70;;
37097;SDS011;63608;49.572;12.348;2023-06-05T03:26:07;2.80;;;2.60;;
37097;SDS011;63608;49.572;12.348;2023-06-05T03:28:12;2.90;;;2.70;;
37097;SDS011;63608;49.572;12.348;2023-06-05T03:30:16;4.13;;;2.30;;
37097;SDS011;63608;49.572;12.348;2023-06-05T03:32:19;2.63;;;2.43;;
37097;SDS011;63608;49.572;12.348;2023-06-05T03:34:21;3.07;;;2.80;;
37097;SDS011;63608;49.572;12.348;2023-06-05T03:36:28;3.00;;;2.50;;
37097;SDS011;63608;49.572;12.348;2023-06-05T03:38:34;2.40;;;2.30;;
37097;SDS011;63608;49.572;12.348;2023-06-05T03:40:37;2.60;;;2.50;;
37097;SDS011;63608;49.572;12.348;2023-06-05T03:42:40;2.83;;;2.63;;
37097;SDS011;63608;49.572;12.348;2023-06-05T03:44:43;3.20;;;2.40;;
37097;SDS011;63608;49.572;12.348;2023-06-05T03:46:48;2.73;;;2.53;;
37097;SDS011;63608;49.572;12.348;2023-06-05T03:48:55;2.70;;;2.60;;
37097;SDS011;63608;49.572;12.348;2023-06-05T03:51:01;2.83;;;2.63;;
37097;SDS011;63608;49.572;12.348;2023-06-05T03:53:07;2.60;;;2.40;;
37097;SDS011;63608;49.572;12.348;2023-06-05T03:55:15;3.20;;;2.40;;
37097;SDS011;63608;49.572;12.348;2023-06-05T03:57:21;2.80;;;2.50;;
37097;SDS011;63608;49.572;12.348;2023-06-05T03:59:24;3.00;;;2.80;;
37097;SDS011;63608;49.572;12.348;2023-06-05T04:01:29;2.73;;;2.60;;
37097;SDS011;63608;49.572;12.348;2023-06-05T04:03:34;3.00;;;2.80;;
37097;SDS011;63608;49.572;12.348;2023-06-05T04:05:39;2.63;;;2.43;;
37097;SDS011;63608;49.572;12.348;2023-06-05T04:07:45;2.90;;;2.70;;
37097;SDS011;63608;49.572;12.348;2023-06-05T04:09:51;2.87;;;2.67;;
37097;SDS011;63608;49.572;12.348;2023-06-05T04:11:53;2.37;;;2.27;;
37097;SDS011;63608;49.572;12.348;2023-06-05T04:13:56;3.00;;;2.70;;
37097;SDS011;63608;49.572;12.348;2023-06-05T04:15:58;3.00;;;2.80;;
37097;SDS011;63608;49.572;12.348;2023-06-05T04:18:05;5.33;;;2.83;;
37097;SDS011;63608;49.572;12.348;2023-06-05T04:20:08;2.93;;;2.70;;
37097;SDS011;63608;49.572;12.348;2023-06-05T04:22:14;5.30;;;3.03;;
37097;SDS011;63608;49.572;12.348;2023-06-05T04:24:18;3.20;;;3.00;;
37097;SDS011;63608;49.572;12.348;2023-06-05T04:26:23;3.20;;;3.00;;
37097;SDS011;63608;49.572;12.348;2023-06-05T04:28:30;2.87;;;2.67;;
37097;SDS011;63608;49.572;12.348;2023-06-05T04:30:36;3.90;;;2.70;;
37097;SDS011;63608;49.572;12.348;2023-06-05T04:32:39;2.70;;;2.50;;
37097;SDS011;63608;49.572;12.348;2023-06-05T04:34:42;5.53;;;2.70;;
37097;SDS011;63608;49.572;12.348;2023-06-05T04:36:46;4.10;;;2.50;;
37097;SDS011;63608;49.572;12.348;2023-06-05T04:38:50;3.57;;;2.83;;
37097;SDS011;63608;49.572;12.348;2023-06-05T04:40:54;2.80;;;2.60;;
37097;SDS011;63608;49.572;12.348;2023-06-05T04:43:01;3.33;;;2.53;;
37097;SDS011;63608;49.572;12.348;2023-06-05T04:45:06;3.33;;;2.70;;
37097;SDS011;63608;49.572;12.348;2023-06-05T04:47:09;2.73;;;2.53;;
37097;SDS011;63608;49.572;12.348;2023-06-05T04:49:13;2.63;;;2.43;;
37097;SDS011;63608;49.572;12.348;2023-06-05T04:51:16;5.77;;;2.20;;
37097;SDS011;63608;49.572;12.348;2023-06-05T04:53:19;2.97;;;2.63;;
37097;SDS011;63608;49.572;12.348;2023-06-05T04:55:23;7.53;;;2.40;;
37097;SDS011;63608;49.572;12.348;2023-06-05T04:57:26;2.87;;;2.67;;
37097;SDS011;63608;49.572;12.348;2023-06-05T04:59:31;3.20;;;2.80;;
37097;SDS011;63608;49.572;12.348;2023-06-05T05:01:34;4.07;;;2.57;;
37097;SDS011;63608;49.572;12.348;2023-06-05T05:03:37;2.90;;;2.60;;
37097;SDS011;63608;49.572;12.348;2023-06-05T05:05:43;3.03;;;2.70;;
37097;SDS011;63608;49.572;12.348;2023-06-05T05:07:49;3.93;;;2.40;;
37097;SDS011;63608;49.572;12.348;2023-06-05T05:09:51;2.97;;;2.67;;
37097;SDS011;63608;49.572;12.348;2023-06-05T05:11:54;2.70;;;2.50;;
37097;SDS011;63608;49.572;12.348;2023-06-05T05:13:57;3.37;;;2.43;;
37097;SDS011;63608;49.572;12.348;2023-06-05T05:16:05;2.97;;;2.77;;
37097;SDS011;63608;49.572;12.348;2023-06-05T05:18:09;3.80;;;2.83;;
37097;SDS011;63608;49.572;12.348;2023-06-05T05:20:12;3.67;;;2.97;;
37097;SDS011;63608;49.572;12.348;2023-06-05T05:22:19;2.80;;;2.60;;
37097;SDS011;63608;49.572;12.348;2023-06-05T05:24:22;2.83;;;2.63;;
37097;SDS011;63608;49.572;12.348;2023-06-05T05:26:26;3.20;;;3.00;;
37097;SDS011;63608;49.572;12.348;2023-06-05T05:28:29;5.00;;;3.07;;
37097;SDS011;63608;49.572;12.348;2023-06-05T05:30:34;4.40;;;2.90;;
37097;SDS011;63608;49.572;12.348;2023-06-05T05:32:39;4.13;;;2.80;;
37097;SDS011;63608;49.572;12.348;2023-06-05T05:34:45;2.40;;;2.30;;
37097;SDS011;63608;49.572;12.348;2023-06-05T05:36:48;3.10;;;2.70;;
37097;SDS011;63608;49.572;12.348;2023-06-05T05:38:50;2.80;;;2.50;;
37097;SDS011;63608;49.572;12.348;2023-06-05T05:41:00;3.23;;;2.80;;
37097;SDS011;63608;49.572;12.348;2023-06-05T05:43:03;3.60;;;2.80;;
37097;SDS011;63608;49.572;12.348;2023-06-05T05:45:06;3.90;;;2.83;;
37097;SDS011;63608;49.572;12.348;2023-06-05T05:47:10;2.67;;;2.50;;
37097;SDS011;63608;49.572;12.348;2023-06-05T05:49:15;2.87;;;2.60;;
37097;SDS011;63608;49.572;12.348;2023-06-05T05:51:18;3.30;;;2.80;;
37097;SDS011;63608;49.572;12.348;2023-06-05T05:53:21;3.00;;;2.80;;
37097;SDS011;63608;49.572;12.348;2023-06-05T05:55:24;2.90;;;2.70;;
37097;SDS011;63608;49.572;12.348;2023-06-05T05:57:29;3.10;;;2.80;;
37097;SDS011;63608;49.572;12.348;2023-06-05T05:59:32;3.53;;;2.63;;
37097;SDS011;63608;49.572;12.348;2023-06-05T06:01:34;5.47;;;2.80;;
37097;SDS011;63608;49.572;12.348;2023-06-05T06:03:39;3.60;;;2.80;;
37097;SDS011;63608;49.572;12.348;2023-06-05T06:05:44;3.20;;;3.00;;
37097;SDS011;63608;49.572;12.348;2023-06-05T06:07:48;5.57;;;3.10;;
37097;SDS011;63608;49.572;12.348;2023-06-05T06:09:53;3.40;;;2.70;;
37097;SDS011;63608;49.572;12.348;2023-06-05T06:11:56;6.40;;;3.20;;
37097;SDS011;63608;49.572;12.348;2023-06-05T06:14:03;3.30;;;2.97;;
37097;SDS011;63608;49.572;12.348;2023-06-05T06:16:07;3.50;;;3.20;;
37097;SDS011;63608;49.572;12.348;2023-06-05T06:18:11;3.30;;;2.93;;
37097;SDS011;63608;49.572;12.348;2023-06-05T06:20:14;3.60;;;3.20;;
37097;SDS011;63608;49.572;12.348;2023-06-05T06:22:18;5.73;;;2.93;;
37097;SDS011;63608;49.572;12.348;2023-06-05T06:24:21;4.70;;;3.00;;
37097;SDS011;63608;49.572;12.348;2023-06-05T06:26:25;4.97;;;2.80;;
37097;SDS011;63608;49.572;12.348;2023-06-05T06:28:29;4.40;;;3.10;;
37097;SDS011;63608;49.572;12.348;2023-06-05T06:30:32;3.23;;;3.03;;
37097;SDS011;63608;49.572;12.348;2023-06-05T06:32:35;5.07;;;3.20;;
37097;SDS011;63608;49.572;12.348;2023-06-05T06:34:38;3.43;;;3.13;;
37097;SDS011;63608;49.572;12.348;2023-06-05T06:36:42;7.03;;;3.50;;
37097;SDS011;63608;49.572;12.348;2023-06-05T06:38:48;3.60;;;3.30;;
37097;SDS011;63608;49.572;12.348;2023-06-05T06:40:50;3.47;;;3.20;;
37097;SDS011;63608;49.572;12.348;2023-06-05T06:42:56;4.10;;;3.13;;
37097;SDS011;63608;49.572;12.348;2023-06-05T06:44:58;6.50;;;3.30;;
37097;SDS011;63608;49.572;12.348;2023-06-05T06:47:04;3.53;;;3.23;;
37097;SDS011;63608;49.572;12.348;2023-06-05T06:49:07;4.10;;;3.67;;
37097;SDS011;63608;49.572;12.348;2023-06-05T06:51:11;5.00;;;3.90;;
37097;SDS011;63608;49.572;12.348;2023-06-05T06:53:14;7.23;;;4.33;;
37097;SDS011;63608;49.572;12.348;2023-06-05T06:55:18;5.30;;;4.57;;
37097;SDS011;63608;49.572;12.348;2023-06-05T06:57:21;5.03;;;4.50;;
37097;SDS011;63608;49.572;12.348;2023-06-05T06:59:23;5.60;;;5.00;;
37097;SDS011;63608;49.572;12.348;2023-06-05T07:01:26;5.03;;;4.50;;
37097;SDS011;63608;49.572;12.348;2023-06-05T07:03:31;4.90;;;4.50;;
37097;SDS011;63608;49.572;12.348;2023-06-05T07:05:35;6.13;;;4.70;;
37097;SDS011;63608;49.572;12.348;2023-06-05T07:07:37;9.10;;;5.17;;
37097;SDS011;63608;49.572;12.348;2023-06-05T07:09:40;5.77;;;5.20;;
37097;SDS011;63608;49.572;12.348;2023-06-05T07:11:46;5.80;;;4.50;;
37097;SDS011;63608;49.572;12.348;2023-06-05T07:13:49;5.30;;;4.80;;
37097;SDS011;63608;49.572;12.348;2023-06-05T07:15:54;6.87;;;5.00;;
37097;SDS011;63608;49.572;12.348;2023-06-05T07:17:58;5.80;;;5.20;;
37097;SDS011;63608;49.572;12.348;2023-06-05T07:20:00;8.57;;;4.90;;
37097;SDS011;63608;49.572;12.348;2023-06-05T07:22:04;5.23;;;4.70;;
37097;SDS011;63608;49.572;12.348;2023-06-05T07:24:07;5.10;;;4.70;;
37097;SDS011;63608;49.572;12.348;2023-06-05T07:26:14;7.10;;;4.97;;
37097;SDS011;63608;49.572;12.348;2023-06-05T07:28:20;6.33;;;4.57;;
37097;SDS011;63608;49.572;12.348;2023-06-05T07:30:28;4.97;;;4.57;;
37097;SDS011;63608;49.572;12.348;2023-06-05T07:32:30;6.33;;;4.60;;
37097;SDS011;63608;49.572;12.348;2023-06-05T07:34:34;5.43;;;4.80;;
37097;SDS011;63608;49.572;12.348;2023-06-05T07:36:36;5.83;;;4.83;;
37097;SDS011;63608;49.572;12.348;2023-06-05T07:38:41;6.97;;;5.07;;
37097;SDS011;63608;49.572;12.348;2023-06-05T07:40:45;5.80;;;4.83;;
37097;SDS011;63608;49.572;12.348;2023-06-05T07:42:48;6.03;;;4.97;;
37097;SDS011;63608;49.572;12.348;2023-06-05T07:44:57;5.40;;;4.90;;
37097;SDS011;63608;49.572;12.348;2023-06-05T07:47:00;7.40;;;5.00;;
37097;SDS011;63608;49.572;12.348;2023-06-05T07:49:04;7.40;;;5.40;;
37097;SDS011;63608;49.572;12.348;2023-06-05T07:51:06;7.00;;;5.43;;
37097;SDS011;63608;49.572;12.348;2023-06-05T07:53:10;5.33;;;4.77;;
37097;SDS011;63608;49.572;12.348;2023-06-05T07:55:13;5.90;;;5.30;;
37097;SDS011;63608;49.572;12.348;2023-06-05T07:57:17;7.07;;;5.40;;
37097;SDS011;63608;49.572;12.348;2023-06-05T07:59:21;6.33;;;5.80;;
37097;SDS011;63608;49.572;12.348;2023-06-05T08:01:27;6.17;;;5.27;;
37097;SDS011;63608;49.572;12.348;2023-06-05T08:03:31;5.60;;;5.10;;
37097;SDS011;63608;49.572;12.348;2023-06-05T08:05:38;5.40;;;4.90;;
37097;SDS011;63608;49.572;12.348;2023-06-05T08:07:43;5.43;;;5.03;;
37097;SDS011;63608;49.572;12.348;2023-06-05T08:09:45;6.43;;;5.40;;
37097;SDS011;63608;49.572;12.348;2023-06-05T08:11:47;6.90;;;5.43;;
37097;SDS011;63608;49.572;12.348;2023-06-05T08:13:50;8.70;;;5.53;;
37097;SDS011;63608;49.572;12.348;2023-06-05T08:15:53;5.80;;;5.20;;
37097;SDS011;63608;49.572;12.348;2023-06-05T08:17:57;7.43;;;5.13;;
37097;SDS011;63608;49.572;12.348;2023-06-05T08:20:07;5.20;;;4.70;;
37097;SDS011;63608;49.572;12.348;2023-06-05T08:22:12;6.23;;;5.30;;
37097;SDS011;63608;49.572;12.348;2023-06-05T08:24:15;5.77;;;5.27;;
37097;SDS011;63608;49.572;12.348;2023-06-05T08:26:18;9.93;;;5.27;;
37097;SDS011;63608;49.572;12.348;2023-06-05T08:28:20;7.83;;;5.50;;
37097;SDS011;63608;49.572;12.348;2023-06-05T08:30:23;8.60;;;5.17;;
37097;SDS011;63608;49.572;12.348;2023-06-05T08:32:25;8.97;;;5.40;;
37097;SDS011;63608;49.572;12.348;2023-06-05T08:34:30;5.97;;;5.37;;
37097;SDS011;63608;49.572;12.348;2023-06-05T08:36:34;7.00;;;5.10;;
37097;SDS011;63608;49.572;12.348;2023-06-05T08:38:38;5.60;;;5.10;;
37097;SDS011;63608;49.572;12.348;2023-06-05T08:40:45;5.80;;;5.20;;
37097;SDS011;63608;49.572;12.348;2023-06-05T08:42:51;5.60;;;5.10;;
37097;SDS011;63608;49.572;12.348;2023-06-05T08:44:53;7.23;;;5.10;;
37097;SDS011;63608;49.572;12.348;2023-06-05T08:46:57;5.33;;;4.93;;
37097;SDS011;63608;49.572;12.348;2023-06-05T08:49:02;6.50;;;5.23;;
37097;SDS011;63608;49.572;12.348;2023-06-05T08:51:15;5.30;;;4.80;;
37097;SDS011;63608;49.572;12.348;2023-06-05T08:53:19;10.13;;;5.07;;
37097;SDS011;63608;49.572;12.348;2023-06-05T08:55:24;4.87;;;4.43;;
37097;SDS011;63608;49.572;12.348;2023-06-05T08:57:28;5.40;;;5.00;;
37097;SDS011;63608;49.572;12.348;2023-06-05T08:59:32;5.40;;;5.00;;
37097;SDS011;63608;49.572;12.348;2023-06-05T09:01:34;5.47;;;4.97;;
37097;SDS011;63608;49.572;12.348;2023-06-05T09:03:41;6.63;;;5.03;;
37097;SDS011;63608;49.572;12.348;2023-06-05T09:05:45;5.73;;;5.17;;
37097;SDS011;63608;49.572;12.348;2023-06-05T09:07:50;5.97;;;5.30;;
37097;SDS011;63608;49.572;12.348;2023-06-05T09:09:57;6.60;;;4.80;;
37097;SDS011;63608;49.572;12.348;2023-06-05T09:12:04;5.93;;;5.10;;
37097;SDS011;63608;49.572;12.348;2023-06-05T09:14:10;6.83;;;4.93;;
37097;SDS011;63608;49.572;12.348;2023-06-05T09:16:19;5.97;;;4.47;;
37097;SDS011;63608;49.572;12.348;2023-06-05T09:18:26;5.10;;;4.57;;
37097;SDS011;63608;49.572;12.348;2023-06-05T09:20:29;5.73;;;5.10;;
37097;SDS011;63608;49.572;12.348;2023-06-05T09:22:35;7.60;;;5.43;;
37097;SDS011;63608;49.572;12.348;2023-06-05T09:24:40;5.93;;;5.20;;
37097;SDS011;63608;49.572;12.348;2023-06-05T09:26:47;5.87;;;5.00;;
37097;SDS011;63608;49.572;12.348;2023-06-05T09:28:54;6.27;;;4.73;;
37097;SDS011;63608;49.572;12.348;2023-06-05T09:30:58;5.93;;;4.93;;
37097;SDS011;63608;49.572;12.348;2023-06-05T09:33:08;5.33;;;4.80;;
37097;SDS011;63608;49.572;12.348;2023-06-05T09:35:16;5.50;;;5.10;;
37097;SDS011;63608;49.572;12.348;2023-06-05T09:37:22;5.50;;;4.97;;
37097;SDS011;63608;49.572;12.348;2023-06-05T09:39:37;7.87;;;4.80;;
37097;SDS011;63608;49.572;12.348;2023-06-05T09:41:43;5.87;;;5.30;;
37097;SDS011;63608;49.572;12.348;2023-06-05T09:43:46;6.07;;;5.30;;
37097;SDS011;63608;49.572;12.348;2023-06-05T09:45:49;6.10;;;5.50;;
37097;SDS011;63608;49.572;12.348;2023-06-05T09:47:53;7.33;;;5.40;;
37097;SDS011;63608;49.572;12.348;2023-06-05T09:49:56;5.63;;;5.13;;
37097;SDS011;63608;49.572;12.348;2023-06-05T09:51:59;5.63;;;4.90;;
37097;SDS011;63608;49.572;12.348;2023-06-05T09:54:02;9.43;;;5.10;;
37097;SDS011;63608;49.572;12.348;2023-06-05T09:56:07;5.93;;;5.20;;
37097;SDS011;63608;49.572;12.348;2023-06-05T09:58:14;6.00;;;5.40;;
37097;SDS011;63608;49.572;12.348;2023-06-05T10:00:17;5.73;;;5.23;;
37097;SDS011;63608;49.572;12.348;2023-06-05T10:02:21;6.60;;;5.30;;
37097;SDS011;63608;49.572;12.348;2023-06-05T10:04:26;7.77;;;5.30;;
37097;SDS011;63608;49.572;12.348;2023-06-05T10:06:29;5.50;;;5.00;;
37097;SDS011;63608;49.572;12.348;2023-06-05T10:11:13;7.97;;;5.63;;
37097;SDS011;63608;49.572;12.348;2023-06-05T10:13:16;5.80;;;5.17;;
37097;SDS011;63608;49.572;12.348;2023-06-05T10:15:20;5.50;;;5.10;;
37097;SDS011;63608;49.572;12.348;2023-06-05T10:17:22;5.30;;;4.80;;
37097;SDS011;63608;49.572;12.348;2023-06-05T10:19:25;7.97;;;5.60;;
37097;SDS011;63608;49.572;12.348;2023-06-05T10:21:27;5.80;;;5.37;;
37097;SDS011;63608;49.572;12.348;2023-06-05T10:23:36;5.87;;;5.37;;
37097;SDS011;63608;49.572;12.348;2023-06-05T10:25:38;7.27;;;5.70;;
37097;SDS011;63608;49.572;12.348;2023-06-05T10:32:59;5.33;;;4.93;;
37097;SDS011;63608;49.572;12.348;2023-06-05T10:35:15;5.90;;;5.40;;
37097;SDS011;63608;49.572;12.348;2023-06-05T10:37:35;6.20;;;5.53;;
37097;SDS011;63608;49.572;12.348;2023-06-05T10:39:41;6.80;;;5.60;;
37097;SDS011;63608;49.572;12.348;2023-06-05T10:41:45;5.90;;;5.40;;
37097;SDS011;63608;49.572;12.348;2023-06-05T10:43:56;5.97;;;5.47;;
37097;SDS011;63608;49.572;12.348;2023-06-05T10:45:59;10.33;;;5.40;;
37097;SDS011;63608;49.572;12.348;2023-06-05T10:48:05;9.10;;;5.67;;
37097;SDS011;63608;49.572;12.348;2023-06-05T10:50:22;6.30;;;5.70;;
37097;SDS011;63608;49.572;12.348;2023-06-05T10:52:37;5.80;;;5.30;;
37097;SDS011;63608;49.572;12.348;2023-06-05T10:54:54;5.90;;;5.40;;
37097;SDS011;63608;49.572;12.348;2023-06-05T10:56:59;6.10;;;5.50;;
37097;SDS011;63608;49.572;12.348;2023-06-05T10:59:13;6.33;;;5.77;;
37097;SDS011;63608;49.572;12.348;2023-06-05T11:01:18;7.90;;;5.10;;
37097;SDS011;63608;49.572;12.348;2023-06-05T11:03:27;9.87;;;5.87;;
37097;SDS011;63608;49.572;12.348;2023-06-05T11:06:12;6.17;;;5.40;;
37097;SDS011;63608;49.572;12.348;2023-06-05T11:08:16;6.43;;;5.80;;
37097;SDS011;63608;49.572;12.348;2023-06-05T11:10:22;6.37;;;5.67;;
37097;SDS011;63608;49.572;12.348;2023-06-05T11:12:24;6.17;;;5.60;;
37097;SDS011;63608;49.572;12.348;2023-06-05T11:14:47;6.90;;;5.90;;
37097;SDS011;63608;49.572;12.348;2023-06-05T11:16:49;13.50;;;6.30;;
37097;SDS011;63608;49.572;12.348;2023-06-05T11:18:51;6.20;;;5.63;;
37097;SDS011;63608;49.572;12.348;2023-06-05T11:20:54;5.63;;;5.13;;
37097;SDS011;63608;49.572;12.348;2023-06-05T11:23:09;6.37;;;5.43;;
37097;SDS011;63608;49.572;12.348;2023-06-05T11:25:24;7.20;;;6.17;;
37097;SDS011;63608;49.572;12.348;2023-06-05T11:29:48;6.93;;;5.97;;
37097;SDS011;63608;49.572;12.348;2023-06-05T11:31:53;8.10;;;6.20;;
37097;SDS011;63608;49.572;12.348;2023-06-05T11:33:55;8.80;;;5.80;;
37097;SDS011;63608;49.572;12.348;2023-06-05T11:35:59;8.97;;;5.77;;
37097;SDS011;63608;49.572;12.348;2023-06-05T11:38:09;7.47;;;6.23;;
37097;SDS011;63608;49.572;12.348;2023-06-05T11:40:22;7.50;;;6.03;;
37097;SDS011;63608;49.572;12.348;2023-06-05T11:42:26;9.03;;;6.57;;
37097;SDS011;63608;49.572;12.348;2023-06-05T11:44:29;9.13;;;6.33;;
37097;SDS011;63608;49.572;12.348;2023-06-05T11:46:38;6.73;;;5.83;;
37097;SDS011;63608;49.572;12.348;2023-06-05T11:48:44;7.03;;;6.33;;
37097;SDS011;63608;49.572;12.348;2023-06-05T11:50:55;6.60;;;5.80;;
37097;SDS011;63608;49.572;12.348;2023-06-05T11:53:04;6.17;;;5.67;;
37097;SDS011;63608;49.572;12.348;2023-06-05T11:55:11;7.00;;;5.67;;
37097;SDS011;63608;49.572;12.348;2023-06-05T11:57:15;7.10;;;6.10;;
37097;SDS011;63608;49.572;12.348;2023-06-05T11:59:19;7.33;;;6.13;;
37097;SDS011;63608;49.572;12.348;2023-06-05T12:01:21;7.70;;;5.70;;
37097;SDS011;63608;49.572;12.348;2023-06-05T12:03:27;7.80;;;5.33;;
37097;SDS011;63608;49.572;12.348;2023-06-05T12:05:30;7.13;;;5.77;;
37097;SDS011;63608;49.572;12.348;2023-06-05T12:07:32;6.07;;;5.47;;
37097;SDS011;63608;49.572;12.348;2023-06-05T12:09:37;5.87;;;5.30;;
37097;SDS011;63608;49.572;12.348;2023-06-05T12:11:41;7.00;;;5.67;;
37097;SDS011;63608;49.572;12.348;2023-06-05T12:13:44;6.40;;;5.80;;
37097;SDS011;63608;49.572;12.348;2023-06-05T12:18:08;9.03;;;5.57;;
37097;SDS011;63608;49.572;12.348;2023-06-05T12:20:12;5.77;;;5.27;;
37097;SDS011;63608;49.572;12.348;2023-06-05T12:22:14;7.00;;;5.77;;
37097;SDS011;63608;49.572;12.348;2023-06-05T12:24:24;9.43;;;5.93;;
37097;SDS011;63608;49.572;12.348;2023-06-05T12:26:27;8.73;;;5.80;;
37097;SDS011;63608;49.572;12.348;2023-06-05T12:28:32;9.17;;;5.67;;
37097;SDS011;63608;49.572;12.348;2023-06-05T12:30:39;6.43;;;5.80;;
37097;SDS011;63608;49.572;12.348;2023-06-05T12:32:42;13.13;;;6.00;;
37097;SDS011;63608;49.572;12.348;2023-06-05T12:34:45;7.43;;;5.80;;